Time;durP1;ratioP1;P1;durP2;ratioP2;P2;SDS_P1;SDS_P2;PMS_P1;PMS_P2;Temp;Humidity;BMP_temperature;BMP_pressure;BME280_temperature;BME280_humidity;BME280_pressure;Samples;Min_cycle;Max_cycle;Signal;HPM_P1;HPM_P2
2023/08/19 00:01:52;;;;;;;29.50;26.50;;;20.30;99.90;;;;;;5009815;28;93081;-36
2023/08/19 00:04:17;;;;;;;24.10;21.45;;;20.30;99.90;;;;;;5017781;28;92933;-33
2023/08/19 00:06:43;;;;;;;25.95;23.15;;;20.30;99.90;;;;;;5017276;28;95351;-31
2023/08/19 00:09:10;;;;;;;26.48;23.67;;;20.30;99.90;;;;;;5016588;28;96150;-34
2023/08/19 00:11:36;;;;;;;27.25;24.42;;;20.30;99.90;;;;;;5018232;28;94925;-38
2023/08/19 00:14:04;;;;;;;26.70;23.95;;;20.20;99.90;;;;;;5017453;28;94154;-32
2023/08/19 00:16:30;;;;;;;27.20;24.50;;;20.30;99.90;;;;;;5016649;28;94918;-34
2023/08/19 00:18:56;;;;;;;29.70;26.83;;;20.30;99.90;;;;;;4999322;28;95252;-33
2023/08/19 00:21:21;;;;;;;28.10;25.33;;;20.20;99.90;;;;;;4998360;28;93288;-31
2023/08/19 00:23:47;;;;;;;31.80;28.63;;;20.30;99.90;;;;;;4999113;28;93896;-31
2023/08/19 00:26:13;;;;;;;30.77;27.77;;;20.30;99.90;;;;;;4998236;28;94185;-32
2023/08/19 00:28:39;;;;;;;30.63;26.30;;;20.30;99.90;;;;;;4998284;28;94659;-36
2023/08/19 00:31:06;;;;;;;38.17;30.48;;;20.30;99.90;;;;;;4997938;28;94423;-32
2023/08/19 00:33:32;;;;;;;29.97;27.03;;;20.30;99.90;;;;;;4998855;28;94930;-35
2023/08/19 00:35:58;;;;;;;33.15;29.77;;;20.30;99.90;;;;;;4997959;28;95121;-33
2023/08/19 00:38:24;;;;;;;32.72;29.35;;;20.30;99.90;;;;;;4997722;28;94617;-38
2023/08/19 00:40:49;;;;;;;31.30;28.13;;;20.30;99.90;;;;;;4998700;28;94120;-34
2023/08/19 00:43:15;;;;;;;31.40;28.13;;;20.30;99.90;;;;;;4997697;28;93877;-36
2023/08/19 00:45:46;;;;;;;29.77;26.70;;;20.30;99.90;;;;;;4998060;28;95039;-32
2023/08/19 00:48:13;;;;;;;31.27;28.33;;;20.30;99.90;;;;;;4998148;28;95226;-34
2023/08/19 00:50:39;;;;;;;30.77;27.55;;;20.30;99.90;;;;;;4998668;28;93907;-34
2023/08/19 00:53:07;;;;;;;33.42;28.33;;;20.20;99.90;;;;;;4997877;28;94472;-32
2023/08/19 00:55:33;;;;;;;27.00;24.23;;;20.30;99.90;;;;;;4996940;28;95750;-34
2023/08/19 00:58:07;;;;;;;33.15;28.35;;;20.30;99.90;;;;;;4997886;28;93558;-34
2023/08/19 01:00:34;;;;;;;29.73;26.88;;;20.30;99.90;;;;;;4999396;28;93397;-36
2023/08/19 01:03:00;;;;;;;31.67;28.55;;;20.30;99.90;;;;;;5017114;28;94436;-35
2023/08/19 01:05:49;;;;;;;35.72;31.90;;;20.30;99.90;;;;;;5016493;28;94304;-33
2023/08/19 01:08:21;;;;;;;29.88;26.98;;;20.30;99.90;;;;;;5016287;28;94292;-33
2023/08/19 01:11:07;;;;;;;29.88;26.88;;;20.30;99.90;;;;;;5016458;28;92867;-32
2023/08/19 01:13:44;;;;;;;30.10;27.08;;;20.30;99.90;;;;;;5016600;28;93733;-33
2023/08/19 01:16:21;;;;;;;31.08;27.80;;;20.20;99.90;;;;;;5015552;28;94601;-32
2023/08/19 01:18:48;;;;;;;29.83;26.48;;;20.30;99.90;;;;;;5014596;28;95179;-34
2023/08/19 01:21:14;;;;;;;31.58;28.00;;;20.20;99.90;;;;;;4996847;28;93980;-31
2023/08/19 01:23:47;;;;;;;29.20;25.98;;;20.30;99.90;;;;;;5015517;28;93205;-36
2023/08/19 01:26:12;;;;;;;27.65;24.60;;;20.20;99.90;;;;;;5015505;28;96054;-33
2023/08/19 01:28:38;;;;;;;28.33;25.50;;;20.30;99.90;;;;;;5014823;28;92645;-32
2023/08/19 01:31:04;;;;;;;28.10;25.15;;;20.20;99.90;;;;;;5016310;28;92659;-34
2023/08/19 01:33:31;;;;;;;30.42;27.02;;;20.20;99.90;;;;;;5014723;28;93312;-34
2023/08/19 01:36:03;;;;;;;30.60;27.37;;;20.30;99.90;;;;;;5015418;28;94438;-31
2023/08/19 01:38:36;;;;;;;29.77;26.88;;;20.30;99.90;;;;;;5015861;28;94538;-35
2023/08/19 01:41:04;;;;;;;30.30;27.13;;;20.20;99.90;;;;;;5016288;28;92276;-32
2023/08/19 01:43:31;;;;;;;30.33;26.90;;;20.30;99.90;;;;;;5015822;28;92638;-32
2023/08/19 01:45:57;;;;;;;34.95;28.45;;;20.30;99.90;;;;;;5014427;28;95803;-36
2023/08/19 01:48:23;;;;;;;30.67;27.48;;;20.20;99.90;;;;;;5014943;28;95491;-34
2023/08/19 01:50:48;;;;;;;30.00;26.85;;;20.20;99.90;;;;;;5015994;28;93254;-33
2023/08/19 01:53:14;;;;;;;30.60;27.35;;;20.30;99.90;;;;;;5015352;28;93459;-32
2023/08/19 01:55:40;;;;;;;29.77;26.92;;;20.30;99.90;;;;;;5015810;28;94635;-35
2023/08/19 01:58:05;;;;;;;31.50;27.27;;;20.20;99.90;;;;;;5008312;28;95371;-31
2023/08/19 02:00:31;;;;;;;31.30;26.60;;;20.20;99.90;;;;;;4996833;28;93458;-37
2023/08/19 02:02:57;;;;;;;26.52;23.83;;;20.20;99.90;;;;;;5009761;28;93767;-32
2023/08/19 02:05:22;;;;;;;28.90;25.90;;;20.20;99.90;;;;;;5008769;28;95158;-38
2023/08/19 02:07:48;;;;;;;29.88;26.88;;;20.10;99.90;;;;;;4983667;28;94583;-35
2023/08/19 02:10:13;;;;;;;26.58;23.80;;;20.10;99.90;;;;;;4996115;28;95544;-33
2023/08/19 02:12:39;;;;;;;28.10;25.42;;;20.10;99.90;;;;;;4996604;28;94019;-32
2023/08/19 02:15:05;;;;;;;30.15;26.98;;;20.20;99.90;;;;;;4995712;28;94510;-33
2023/08/19 02:17:31;;;;;;;30.13;27.02;;;20.10;99.90;;;;;;4983230;28;94593;-35
2023/08/19 02:19:56;;;;;;;28.60;25.65;;;20.10;99.90;;;;;;4996603;28;92209;-34
2023/08/19 02:22:22;;;;;;;31.25;26.95;;;20.10;99.90;;;;;;4994874;28;93182;-33
2023/08/19 02:24:48;;;;;;;29.98;26.90;;;20.10;99.90;;;;;;5009124;28;95311;-35
2023/08/19 02:27:13;;;;;;;31.88;28.77;;;20.10;99.90;;;;;;5002582;28;94648;-35
2023/08/19 02:29:39;;;;;;;31.92;27.08;;;20.10;99.90;;;;;;5015952;28;92943;-33
2023/08/19 02:32:05;;;;;;;29.73;26.58;;;20.10;99.90;;;;;;5016132;28;94436;-32
2023/08/19 02:34:31;;;;;;;28.63;25.60;;;20.10;99.90;;;;;;4983581;28;95269;-34
2023/08/19 02:36:56;;;;;;;29.85;26.90;;;20.00;99.90;;;;;;5015475;28;97524;-35
2023/08/19 02:39:22;;;;;;;29.23;26.25;;;20.00;99.90;;;;;;5002462;28;93909;-34
2023/08/19 02:41:48;;;;;;;38.22;27.45;;;20.00;99.90;;;;;;5002388;28;94698;-35
2023/08/19 02:44:13;;;;;;;27.45;24.70;;;20.10;99.90;;;;;;5014669;28;94808;-32
2023/08/19 02:46:39;;;;;;;30.83;27.52;;;20.00;99.90;;;;;;5014892;28;94613;-38
2023/08/19 02:49:04;;;;;;;26.92;24.02;;;20.10;99.90;;;;;;5015863;28;94781;-34
2023/08/19 02:51:30;;;;;;;27.20;24.40;;;20.00;99.90;;;;;;4995455;28;93444;-37
2023/08/19 02:53:56;;;;;;;26.77;24.00;;;20.00;99.90;;;;;;4996611;28;94626;-31
2023/08/19 02:56:21;;;;;;;29.17;26.13;;;20.00;99.90;;;;;;4995128;28;94205;-33
2023/08/19 02:58:47;;;;;;;29.77;26.00;;;20.00;99.90;;;;;;4996662;28;95454;-35
2023/08/19 03:01:15;;;;;;;26.70;24.08;;;20.00;99.90;;;;;;5000903;28;93565;-36
2023/08/19 03:03:41;;;;;;;28.25;25.30;;;19.90;99.90;;;;;;5014514;28;94558;-32
2023/08/19 03:06:07;;;;;;;26.35;23.63;;;19.90;99.90;;;;;;5014814;28;94494;-36
2023/08/19 03:08:32;;;;;;;27.20;24.25;;;19.90;99.90;;;;;;5002431;28;94374;-35
2023/08/19 03:10:58;;;;;;;31.48;25.63;;;19.90;99.90;;;;;;5015003;28;93237;-35
2023/08/19 03:13:23;;;;;;;28.10;25.17;;;19.90;99.90;;;;;;5014509;28;94954;-36
2023/08/19 03:15:49;;;;;;;27.00;24.38;;;19.90;99.90;;;;;;5014462;28;94522;-35
2023/08/19 03:18:15;;;;;;;28.23;25.58;;;19.90;99.90;;;;;;5015269;28;94691;-33
2023/08/19 03:20:41;;;;;;;26.25;23.60;;;19.80;99.90;;;;;;4995541;28;93196;-34
2023/08/19 03:23:07;;;;;;;28.15;25.20;;;19.80;99.90;;;;;;4994157;28;95628;-35
2023/08/19 03:25:33;;;;;;;28.92;24.85;;;19.80;99.90;;;;;;4994953;28;96093;-32
2023/08/19 03:27:59;;;;;;;24.60;22.30;;;19.80;99.90;;;;;;4995018;28;94395;-35
2023/08/19 03:30:24;;;;;;;28.08;25.27;;;19.70;99.90;;;;;;5013770;28;93279;-35
2023/08/19 03:32:50;;;;;;;26.10;23.50;;;19.70;99.90;;;;;;4996398;28;94569;-35
2023/08/19 03:35:16;;;;;;;27.10;22.38;;;19.70;99.90;;;;;;5014168;28;94592;-34
2023/08/19 03:37:41;;;;;;;24.63;22.13;;;19.70;99.90;;;;;;5014896;28;93199;-34
2023/08/19 03:40:08;;;;;;;26.92;22.60;;;19.70;99.90;;;;;;5008601;28;93967;-37
2023/08/19 03:42:33;;;;;;;26.65;23.77;;;19.70;99.90;;;;;;4995226;28;93156;-32
2023/08/19 03:44:59;;;;;;;24.83;22.42;;;19.70;99.90;;;;;;4995231;28;94474;-32
2023/08/19 03:47:25;;;;;;;22.25;19.75;;;19.70;99.90;;;;;;4995211;28;95608;-35
2023/08/19 03:49:50;;;;;;;23.35;20.92;;;19.70;99.90;;;;;;4995642;28;93494;-34
2023/08/19 03:52:16;;;;;;;23.75;21.05;;;19.70;99.90;;;;;;4995149;28;95152;-35
2023/08/19 03:54:42;;;;;;;29.15;21.17;;;19.80;99.90;;;;;;4997027;28;94653;-32
2023/08/19 03:57:08;;;;;;;23.55;21.27;;;19.80;99.90;;;;;;4994807;28;95148;-36
2023/08/19 03:59:34;;;;;;;24.45;21.88;;;19.80;99.90;;;;;;4997346;28;93235;-32
2023/08/19 04:01:59;;;;;;;26.17;21.17;;;19.80;99.90;;;;;;5007715;28;94555;-34
2023/08/19 04:04:25;;;;;;;23.42;20.95;;;19.80;99.90;;;;;;4995391;28;94584;-37
2023/08/19 04:06:50;;;;;;;23.67;21.42;;;19.80;99.90;;;;;;4995008;28;92714;-32
2023/08/19 04:09:16;;;;;;;27.73;23.30;;;19.80;99.90;;;;;;4994829;28;94531;-35
2023/08/19 04:11:42;;;;;;;24.67;20.08;;;19.80;99.90;;;;;;4995582;28;95805;-32
2023/08/19 04:14:08;;;;;;;23.75;21.42;;;19.80;99.90;;;;;;4997935;28;94343;-35
2023/08/19 04:16:34;;;;;;;25.00;22.55;;;19.70;99.90;;;;;;4997858;28;94175;-33
2023/08/19 04:19:00;;;;;;;24.73;22.40;;;19.70;99.90;;;;;;4999421;28;93183;-33
2023/08/19 04:21:26;;;;;;;26.90;20.85;;;19.70;99.90;;;;;;4997530;28;94875;-34
2023/08/19 04:23:52;;;;;;;21.48;19.48;;;19.70;99.90;;;;;;4998182;28;94511;-33
2023/08/19 04:26:17;;;;;;;23.63;20.30;;;19.70;99.90;;;;;;4998059;28;93178;-36
2023/08/19 04:28:43;;;;;;;22.52;19.95;;;19.70;99.90;;;;;;5000299;28;93794;-32
2023/08/19 04:31:10;;;;;;;23.15;20.55;;;19.70;99.90;;;;;;4998453;28;94952;-34
2023/08/19 04:33:36;;;;;;;23.27;19.33;;;19.80;99.90;;;;;;4997793;28;94940;-33
2023/08/19 04:36:02;;;;;;;22.52;20.17;;;19.80;99.90;;;;;;4998740;28;93048;-31
2023/08/19 04:38:28;;;;;;;22.65;19.70;;;19.80;99.90;;;;;;4997672;28;92311;-35
2023/08/19 04:40:54;;;;;;;25.42;19.85;;;19.90;99.90;;;;;;4998690;28;95808;-33
2023/08/19 04:43:20;;;;;;;22.88;19.45;;;19.90;99.90;;;;;;4998211;28;94497;-32
2023/08/19 04:45:46;;;;;;;20.58;18.50;;;20.00;99.90;;;;;;4999288;28;94797;-32
2023/08/19 04:48:11;;;;;;;21.05;18.88;;;20.00;99.90;;;;;;4999150;28;93456;-36
2023/08/19 04:50:37;;;;;;;22.02;19.60;;;20.00;99.90;;;;;;4998539;28;94761;-35
2023/08/19 04:53:03;;;;;;;21.25;19.08;;;20.00;99.90;;;;;;4998294;28;94823;-33
2023/08/19 04:55:29;;;;;;;19.88;17.60;;;20.10;99.90;;;;;;4997504;28;93006;-34
2023/08/19 04:57:55;;;;;;;21.48;19.17;;;20.10;99.90;;;;;;4996773;28;92629;-32
2023/08/19 05:00:21;;;;;;;22.73;18.80;;;20.10;99.90;;;;;;4996551;28;95621;-37
2023/08/19 05:02:48;;;;;;;20.10;17.70;;;20.20;99.90;;;;;;5015613;28;96979;-34
2023/08/19 05:05:14;;;;;;;20.02;17.55;;;20.20;99.90;;;;;;4998309;28;92279;-32
2023/08/19 05:07:39;;;;;;;20.70;18.52;;;20.30;99.90;;;;;;5016619;28;93800;-32
2023/08/19 05:10:06;;;;;;;19.85;17.85;;;20.40;99.90;;;;;;5016473;28;95409;-34
2023/08/19 05:12:31;;;;;;;20.75;18.52;;;20.40;99.90;;;;;;4997818;28;94622;-34
2023/08/19 05:14:57;;;;;;;24.60;19.40;;;20.50;99.90;;;;;;5017445;28;94107;-34
2023/08/19 05:17:22;;;;;;;18.13;16.42;;;20.60;99.90;;;;;;5014546;28;91643;-36
2023/08/19 05:19:48;;;;;;;20.08;18.15;;;20.70;99.90;;;;;;5016702;28;94752;-34
2023/08/19 05:22:13;;;;;;;21.83;18.05;;;20.80;99.90;;;;;;5014490;28;94397;-32
2023/08/19 05:24:39;;;;;;;18.00;16.20;;;20.90;99.90;;;;;;5015811;28;95640;-35
2023/08/19 05:27:05;;;;;;;18.45;16.55;;;20.90;99.90;;;;;;5015025;28;92894;-36
2023/08/19 05:29:31;;;;;;;18.92;16.00;;;21.00;99.90;;;;;;5016450;28;94570;-32
2023/08/19 05:31:57;;;;;;;19.77;17.67;;;21.00;99.90;;;;;;5016308;28;94375;-33
2023/08/19 05:34:25;;;;;;;19.58;17.55;;;20.90;99.90;;;;;;5016322;28;94153;-31
2023/08/19 05:36:51;;;;;;;19.80;15.45;;;20.90;99.90;;;;;;5015941;28;92366;-33
2023/08/19 05:39:17;;;;;;;18.88;16.92;;;20.90;99.90;;;;;;5016874;28;93652;-33
2023/08/19 05:41:43;;;;;;;17.33;15.05;;;20.90;99.90;;;;;;4996206;28;94369;-32
2023/08/19 05:44:08;;;;;;;17.75;15.50;;;20.90;99.90;;;;;;4996508;28;93222;-32
2023/08/19 05:46:34;;;;;;;17.85;15.48;;;20.90;99.90;;;;;;4996577;28;92512;-32
2023/08/19 05:49:00;;;;;;;21.50;15.27;;;21.00;99.90;;;;;;4996714;28;96197;-33
2023/08/19 05:51:27;;;;;;;15.85;14.23;;;21.00;99.90;;;;;;4997877;28;95728;-31
2023/08/19 05:53:58;;;;;;;17.23;15.38;;;20.90;99.90;;;;;;4996960;28;92564;-37
2023/08/19 05:56:24;;;;;;;15.82;14.23;;;20.90;99.90;;;;;;4965878;28;93926;-34
2023/08/19 05:58:50;;;;;;;23.67;15.20;;;20.90;99.90;;;;;;4994098;28;94607;-33
2023/08/19 06:01:16;;;;;;;15.32;13.95;;;20.90;99.90;;;;;;4999851;28;94593;-37
2023/08/19 06:03:41;;;;;;;16.42;14.93;;;20.90;99.90;;;;;;5000061;28;93648;-33
2023/08/19 06:06:07;;;;;;;15.48;13.95;;;21.00;99.90;;;;;;4994647;28;92677;-37
2023/08/19 06:08:34;;;;;;;16.77;15.15;;;21.00;99.90;;;;;;4994108;28;94827;-32
2023/08/19 06:11:06;;;;;;;16.42;13.70;;;21.10;99.90;;;;;;4993547;28;94354;-33
2023/08/19 06:13:32;;;;;;;17.15;14.98;;;21.10;99.90;;;;;;4993749;28;94047;-33
2023/08/19 06:15:58;;;;;;;17.25;15.55;;;21.10;99.90;;;;;;4992802;28;93836;-34
2023/08/19 06:18:24;;;;;;;15.43;13.73;;;21.10;99.90;;;;;;4994793;28;94017;-34
2023/08/19 06:20:51;;;;;;;16.80;14.25;;;21.20;99.90;;;;;;4976083;28;94359;-33
2023/08/19 06:23:18;;;;;;;16.65;14.65;;;21.20;99.90;;;;;;4993845;28;94177;-35
2023/08/19 06:25:50;;;;;;;18.92;15.98;;;21.20;99.90;;;;;;4993825;28;92930;-31
2023/08/19 06:28:21;;;;;;;17.15;15.50;;;21.20;99.90;;;;;;5008621;28;94920;-35
2023/08/19 06:30:47;;;;;;;16.83;15.18;;;21.20;99.90;;;;;;5013594;28;94883;-36
2023/08/19 06:33:14;;;;;;;16.67;15.02;;;21.20;99.90;;;;;;5013536;28;93323;-32
2023/08/19 06:35:41;;;;;;;16.70;15.07;;;21.20;99.90;;;;;;5012811;28;94432;-37
2023/08/19 06:38:14;;;;;;;17.52;15.60;;;21.20;99.90;;;;;;5011919;28;96230;-35
2023/08/19 06:40:51;;;;;;;17.20;15.50;;;21.20;99.90;;;;;;5013479;28;95239;-35
2023/08/19 06:43:19;;;;;;;15.33;13.83;;;21.20;99.90;;;;;;4994391;28;93490;-33
2023/08/19 06:45:45;;;;;;;20.13;16.10;;;21.20;99.90;;;;;;4993850;28;93078;-33
2023/08/19 06:48:13;;;;;;;15.35;13.32;;;21.20;99.90;;;;;;4999477;28;95126;-36
2023/08/19 06:50:38;;;;;;;16.00;14.30;;;21.20;99.90;;;;;;5000233;28;95905;-34
2023/08/19 06:53:09;;;;;;;17.85;15.20;;;21.30;99.90;;;;;;4992766;28;93617;-34
2023/08/19 06:55:36;;;;;;;16.48;14.90;;;21.30;99.90;;;;;;4995477;28;93756;-32
2023/08/19 06:58:07;;;;;;;17.90;14.98;;;21.30;99.90;;;;;;5006867;28;94963;-33
2023/08/19 07:00:33;;;;;;;15.77;14.07;;;21.30;99.90;;;;;;5001226;28;94924;-34
2023/08/19 07:03:01;;;;;;;15.85;14.38;;;21.30;99.90;;;;;;5013005;28;95348;-32
2023/08/19 07:05:30;;;;;;;15.25;13.80;;;21.30;99.90;;;;;;5012682;28;92721;-33
2023/08/19 07:08:00;;;;;;;16.30;13.32;;;21.40;99.90;;;;;;5012448;28;93265;-37
2023/08/19 07:10:26;;;;;;;14.75;13.35;;;21.40;99.90;;;;;;5011498;28;96276;-33
2023/08/19 07:12:52;;;;;;;15.90;14.30;;;21.40;99.90;;;;;;5011484;28;93161;-34
2023/08/19 07:15:18;;;;;;;19.60;13.90;;;21.50;99.90;;;;;;5002792;28;94109;-31
2023/08/19 07:17:46;;;;;;;14.57;12.25;;;21.50;99.90;;;;;;5002290;28;94463;-37
2023/08/19 07:20:15;;;;;;;16.15;13.90;;;21.50;99.90;;;;;;5002547;28;94656;-31
2023/08/19 07:22:43;;;;;;;14.40;13.02;;;21.60;99.90;;;;;;5003833;28;92183;-33
2023/08/19 07:25:09;;;;;;;;;;;21.60;99.90;;;;;;4999528;28;94361;-32
2023/08/19 07:27:36;;;;;;;14.80;13.32;;;21.60;99.90;;;;;;4994226;28;95445;-32
2023/08/19 07:30:03;;;;;;;17.30;12.52;;;21.50;99.90;;;;;;4998627;28;96366;-33
2023/08/19 07:32:31;;;;;;;14.98;13.43;;;21.60;99.90;;;;;;4996071;28;93069;-36
2023/08/19 07:34:56;;;;;;;;;;;21.60;99.90;;;;;;4998978;28;92383;-35
2023/08/19 07:37:23;;;;;;;16.90;12.38;;;21.60;99.90;;;;;;4986970;28;97152;-34
2023/08/19 07:39:52;;;;;;;14.48;12.98;;;21.60;99.90;;;;;;4998276;28;94849;-34
2023/08/19 07:42:17;;;;;;;13.48;12.18;;;21.70;99.90;;;;;;4986357;28;94068;-33
2023/08/19 07:44:43;;;;;;;13.48;11.10;;;21.70;99.90;;;;;;5000576;28;91846;-32
2023/08/19 07:47:08;;;;;;;13.25;11.93;;;21.70;99.90;;;;;;4997143;28;94731;-32
2023/08/19 07:49:34;;;;;;;14.48;13.00;;;21.70;99.90;;;;;;5004012;28;94495;-36
2023/08/19 07:52:00;;;;;;;13.88;12.55;;;21.70;99.90;;;;;;4999538;28;94776;-36
2023/08/19 07:54:25;;;;;;;13.38;11.90;;;21.80;99.90;;;;;;5003589;28;92167;-32
2023/08/19 07:56:57;;;;;;;14.45;12.93;;;21.80;99.90;;;;;;4999664;28;96712;-33
2023/08/19 07:59:27;;;;;;;12.63;11.20;;;21.90;99.90;;;;;;4999071;28;94615;-32
2023/08/19 08:01:54;;;;;;;12.52;11.32;;;21.90;99.90;;;;;;5007673;28;94776;-32
2023/08/19 08:04:21;;;;;;;14.63;12.30;;;22.00;99.90;;;;;;4998697;28;93377;-35
2023/08/19 08:06:48;;;;;;;15.85;12.13;;;22.10;99.90;;;;;;4997926;28;94733;-34
2023/08/19 08:09:13;;;;;;;14.13;11.88;;;22.20;99.90;;;;;;5000703;28;94493;-35
2023/08/19 08:11:44;;;;;;;13.77;11.45;;;22.30;99.90;;;;;;4997951;28;93634;-34
2023/08/19 08:14:10;;;;;;;13.38;11.05;;;22.30;99.90;;;;;;5001407;28;93500;-34
2023/08/19 08:16:35;;;;;;;12.90;11.13;;;22.40;99.90;;;;;;4996522;28;96021;-35
2023/08/19 08:19:01;;;;;;;11.98;10.73;;;22.50;99.90;;;;;;5000956;28;94539;-32
2023/08/19 08:21:26;;;;;;;12.30;11.05;;;22.50;99.90;;;;;;5031947;22;94209;-33
2023/08/19 08:23:54;;;;;;;12.27;10.02;;;22.60;99.90;;;;;;5000146;28;93978;-36
2023/08/19 08:26:22;;;;;;;14.45;10.25;;;22.70;99.90;;;;;;4997663;28;94181;-32
2023/08/19 08:28:49;;;;;;;11.70;10.63;;;22.70;99.90;;;;;;4998546;28;94277;-34
2023/08/19 08:31:16;;;;;;;12.77;11.52;;;22.90;99.90;;;;;;4996658;28;93531;-33
2023/08/19 08:33:42;;;;;;;11.20;10.07;;;22.90;99.90;;;;;;4997642;28;91803;-34
2023/08/19 08:36:08;;;;;;;12.40;10.00;;;23.00;99.90;;;;;;4996630;28;95896;-35
2023/08/19 08:38:33;;;;;;;10.90;9.80;;;23.10;99.90;;;;;;4999107;28;94339;-31
2023/08/19 08:41:03;;;;;;;11.13;9.98;;;23.20;99.90;;;;;;4997747;28;95145;-36
2023/08/19 08:43:33;;;;;;;12.40;9.18;;;23.20;99.90;;;;;;4999113;28;94391;-30
2023/08/19 08:46:02;;;;;;;11.80;9.98;;;23.30;99.90;;;;;;4998972;28;94264;-37
2023/08/19 08:48:31;;;;;;;11.10;9.98;;;23.40;99.90;;;;;;4997857;28;94694;-33
2023/08/19 08:50:58;;;;;;;16.13;10.00;;;23.50;99.90;;;;;;4999827;28;94227;-32
2023/08/19 08:53:29;;;;;;;13.30;10.25;;;23.50;99.90;;;;;;4996297;28;92887;-32
2023/08/19 08:55:55;;;;;;;12.45;10.85;;;23.70;99.90;;;;;;4999205;28;94767;-35
2023/08/19 08:58:21;;;;;;;10.77;9.68;;;;;;;;;;4997264;28;94740;-36
2023/08/19 09:00:48;;;;;;;9.10;8.27;;;24.00;99.90;;;;;;5002027;28;94414;-33
2023/08/19 09:03:19;;;;;;;10.40;9.20;;;24.10;99.90;;;;;;5005284;28;93403;-35
2023/08/19 09:05:51;;;;;;;11.57;9.18;;;24.30;99.90;;;;;;4994771;28;95641;-33
2023/08/19 09:08:22;;;;;;;10.70;8.60;;;24.50;99.90;;;;;;4977397;28;95160;-33
2023/08/19 09:10:48;;;;;;;10.07;9.15;;;24.60;99.90;;;;;;4995671;28;93855;-33
2023/08/19 09:13:20;;;;;;;10.50;9.20;;;24.50;99.90;;;;;;4995998;28;92217;-32
2023/08/19 09:15:46;;;;;;;12.82;8.55;;;24.50;99.90;;;;;;4976555;28;96381;-35
2023/08/19 09:18:12;;;;;;;8.77;7.97;;;24.70;99.90;;;;;;4994808;28;95844;-35
2023/08/19 09:20:40;;;;;;;9.57;8.68;;;24.70;99.90;;;;;;4995414;28;93915;-37
2023/08/19 09:23:10;;;;;;;9.13;8.33;;;24.90;99.90;;;;;;4995927;28;93364;-33
2023/08/19 09:25:39;;;;;;;9.93;8.93;;;24.90;99.90;;;;;;4995846;28;94920;-33
2023/08/19 09:28:05;;;;;;;11.82;7.90;;;24.90;99.90;;;;;;4996655;28;93506;-31
2023/08/19 09:30:32;;;;;;;10.80;7.63;;;25.00;99.90;;;;;;4982486;28;94817;-35
2023/08/19 09:33:01;;;;;;;7.75;6.93;;;24.90;99.90;;;;;;4995685;28;94330;-32
2023/08/19 09:35:39;;;;;;;9.88;8.88;;;25.00;99.90;;;;;;4994070;28;94735;-35
2023/08/19 09:38:04;;;;;;;7.25;6.45;;;25.00;99.90;;;;;;4994942;28;94513;-35
2023/08/19 09:40:30;;;;;;;7.65;6.70;;;25.10;99.90;;;;;;4995107;28;94843;-35
2023/08/19 09:43:00;;;;;;;8.82;6.97;;;25.20;99.90;;;;;;4996424;28;93059;-34
2023/08/19 09:45:26;;;;;;;8.45;7.47;;;25.30;99.90;;;;;;5003247;28;93155;-33
2023/08/19 09:47:53;;;;;;;8.73;7.35;;;25.40;99.90;;;;;;5004504;28;94800;-34
2023/08/19 09:50:22;;;;;;;7.72;6.65;;;25.40;99.90;;;;;;5002241;28;94152;-33
2023/08/19 09:53:01;;;;;;;8.23;7.18;;;25.50;99.90;;;;;;5003824;28;93237;-36
2023/08/19 09:55:29;;;;;;;6.75;6.15;;;25.60;99.90;;;;;;4999166;28;96418;-36
2023/08/19 09:57:56;;;;;;;7.65;6.95;;;25.70;99.90;;;;;;5005606;28;95736;-37
2023/08/19 10:00:22;;;;;;;7.93;6.68;;;25.80;99.90;;;;;;5001060;28;94421;-36
2023/08/19 10:02:48;;;;;;;8.63;7.07;;;25.90;99.90;;;;;;5008735;28;93574;-33
2023/08/19 10:05:15;;;;;;;6.70;6.10;;;25.90;99.90;;;;;;5005488;28;94443;-32
2023/08/19 10:07:49;;;;;;;7.32;6.78;;;26.20;99.90;;;;;;4995359;28;94993;-37
2023/08/19 10:10:16;;;;;;;7.40;6.53;;;26.50;99.90;;;;;;4993764;28;92775;-33
2023/08/19 10:12:44;;;;;;;8.07;6.73;;;26.50;99.90;;;;;;5006995;28;92081;-32
2023/08/19 10:15:13;;;;;;;8.00;7.15;;;26.60;99.90;;;;;;4994326;28;94641;-37
2023/08/19 10:17:46;;;;;;;7.10;6.40;;;26.70;99.90;;;;;;5014128;28;94270;-33
2023/08/19 10:20:17;;;;;;;7.47;6.78;;;26.90;99.90;;;;;;5012938;28;93986;-35
2023/08/19 10:22:47;;;;;;;13.57;6.45;;;27.00;99.90;;;;;;5013484;28;93403;-33
2023/08/19 10:25:14;;;;;;;7.75;6.93;;;27.00;99.90;;;;;;4996131;28;94553;-34
2023/08/19 10:27:42;;;;;;;8.43;6.60;;;27.00;99.90;;;;;;4993874;28;94741;-32
2023/08/19 10:30:23;;;;;;;9.80;7.60;;;27.10;99.90;;;;;;5007037;28;93591;-33
2023/08/19 10:32:48;;;;;;;9.50;7.13;;;27.10;99.90;;;;;;4993628;28;94703;-33
2023/08/19 10:35:16;;;;;;;6.35;5.75;;;27.00;99.90;;;;;;4993989;28;95844;-33
2023/08/19 10:37:43;;;;;;;8.65;7.78;;;27.00;99.90;;;;;;5006968;28;95907;-33
2023/08/19 10:40:13;;;;;;;8.95;7.07;;;27.00;99.90;;;;;;5012959;28;92985;-34
2023/08/19 10:42:40;;;;;;;7.55;6.78;;;27.00;99.90;;;;;;5013786;28;94242;-35
2023/08/19 10:45:17;;;;;;;7.88;6.75;;;27.10;99.90;;;;;;4999953;28;95887;-32
2023/08/19 10:47:43;;;;;;;6.80;6.20;;;27.20;99.90;;;;;;5011354;28;95320;-32
2023/08/19 10:50:10;;;;;;;10.73;8.10;;;27.10;99.90;;;;;;4993356;28;93897;-35
2023/08/19 10:53:03;;;;;;;9.80;7.47;;;27.10;99.90;;;;;;4975613;28;94070;-32
2023/08/19 10:55:52;;;;;;;15.13;8.00;;;27.00;99.90;;;;;;4999007;28;94591;-34
2023/08/19 10:58:19;;;;;;;10.88;7.55;;;27.00;99.90;;;;;;4998877;28;94473;-35
2023/08/19 11:00:47;;;;;;;9.00;8.15;;;26.90;99.90;;;;;;5001306;28;94447;-34
2023/08/19 11:03:12;;;;;;;11.95;7.90;;;26.60;99.90;;;;;;5004337;28;93011;-34
2023/08/19 11:05:50;;;;;;;9.52;8.40;;;26.60;99.90;;;;;;4993972;28;94563;-35
2023/08/19 11:08:16;;;;;;;;;;;26.40;99.90;;;;;;4994961;28;94582;-34
2023/08/19 11:10:45;;;;;;;8.85;7.70;;;26.30;99.90;;;;;;4995270;28;93891;-34
2023/08/19 11:13:12;;;;;;;8.77;7.97;;;26.20;99.90;;;;;;4993551;28;93728;-37
2023/08/19 11:15:39;;;;;;;13.77;8.75;;;26.20;99.90;;;;;;4975586;28;95251;-37
2023/08/19 11:18:04;;;;;;;9.40;8.50;;;25.90;99.90;;;;;;4994568;28;94364;-32
2023/08/19 11:20:30;;;;;;;10.23;9.10;;;25.80;99.90;;;;;;4994440;28;93139;-34
2023/08/19 11:22:56;;;;;;;13.48;9.43;;;25.70;99.90;;;;;;4996226;28;93172;-36
2023/08/19 11:25:32;;;;;;;10.07;8.52;;;25.60;99.90;;;;;;4996388;28;96562;-34
2023/08/19 11:27:58;;;;;;;12.88;9.45;;;25.60;99.90;;;;;;4997157;28;95093;-34
2023/08/19 11:30:24;;;;;;;16.85;9.75;;;25.50;99.90;;;;;;4997697;28;94608;-32
2023/08/19 11:32:49;;;;;;;13.80;9.73;;;25.60;99.90;;;;;;4997487;28;93279;-35
2023/08/19 11:35:15;;;;;;;12.50;11.20;;;25.60;99.90;;;;;;4996302;28;95517;-33
2023/08/19 11:37:41;;;;;;;11.90;10.30;;;25.60;99.90;;;;;;4995358;28;96547;-35
2023/08/19 11:40:08;;;;;;;10.93;9.82;;;25.60;99.90;;;;;;4997750;28;93096;-31
2023/08/19 11:42:33;;;;;;;12.40;11.10;;;25.70;99.90;;;;;;4997605;28;93348;-34
2023/08/19 11:44:59;;;;;;;12.50;11.40;;;25.80;99.90;;;;;;4978799;28;94808;-34
2023/08/19 11:47:25;;;;;;;13.88;10.95;;;25.80;99.90;;;;;;4996025;28;94597;-37
2023/08/19 11:49:51;;;;;;;11.77;10.63;;;25.90;99.90;;;;;;4996334;28;94102;-34
2023/08/19 11:52:20;;;;;;;12.23;11.00;;;25.90;99.90;;;;;;4996295;28;91693;-35
2023/08/19 11:55:06;;;;;;;12.05;11.05;;;26.00;99.90;;;;;;4995723;28;94645;-35
2023/08/19 11:57:34;;;;;;;16.33;12.45;;;26.00;99.90;;;;;;4997144;28;95057;-34
2023/08/19 11:59:59;;;;;;;11.75;10.77;;;26.00;99.90;;;;;;4996445;28;93946;-33
2023/08/19 12:02:25;;;;;;;14.07;12.25;;;26.00;99.90;;;;;;5008887;28;94711;-34
2023/08/19 12:04:54;;;;;;;11.38;10.20;;;26.00;99.90;;;;;;4995032;28;94546;-34
2023/08/19 12:07:29;;;;;;;13.60;11.55;;;26.10;99.90;;;;;;4995843;28;94690;-35
2023/08/19 12:10:01;;;;;;;13.80;12.43;;;26.20;99.90;;;;;;4995831;28;93523;-33
2023/08/19 12:12:28;;;;;;;13.68;12.38;;;26.20;99.90;;;;;;4995462;28;93871;-34
2023/08/19 12:14:55;;;;;;;15.32;12.10;;;26.50;99.90;;;;;;4995289;28;95607;-36
2023/08/19 12:17:21;;;;;;;13.60;12.38;;;26.60;99.90;;;;;;4977776;28;94659;-36
2023/08/19 12:19:47;;;;;;;15.60;13.00;;;26.80;99.90;;;;;;4996345;28;92407;-32
2023/08/19 12:22:13;;;;;;;12.27;11.18;;;26.90;99.90;;;;;;5000178;28;94864;-35
2023/08/19 12:24:40;;;;;;;16.67;13.48;;;27.00;99.90;;;;;;5006731;28;95214;-35
2023/08/19 12:27:05;;;;;;;19.70;14.07;;;26.80;99.90;;;;;;5008716;28;95676;-33
2023/08/19 12:29:31;;;;;;;16.38;13.27;;;26.80;99.90;;;;;;5005571;28;93846;-34
2023/08/19 12:31:57;;;;;;;14.65;12.50;;;26.90;99.90;;;;;;5009663;27;93702;-33